Time;durP1;ratioP1;P1;durP2;ratioP2;P2;SDS_P1;SDS_P2;PMS_P1;PMS_P2;Temp;Humidity;BMP_temperature;BMP_pressure;BME280_temperature;BME280_humidity;BME280_pressure;Samples;Min_cycle;Max_cycle;Signal;HPM_P1;HPM_P2
2023/09/30 00:01:55;;;;;;;11.63;2.25;;;15.30;99.90;;;;;;5108941;28;20394;-83
2023/09/30 00:04:20;;;;;;;13.00;2.42;;;15.30;99.90;;;;;;5090447;28;20027;-82
2023/09/30 00:06:46;;;;;;;10.82;2.13;;;15.30;99.90;;;;;;5091357;28;20028;-82
2023/09/30 00:09:11;;;;;;;11.60;2.33;;;15.30;99.90;;;;;;5109589;28;20039;-83
2023/09/30 00:11:37;;;;;;;13.02;2.47;;;15.40;99.90;;;;;;5109550;28;20036;-83
2023/09/30 00:14:04;;;;;;;8.00;2.28;;;15.40;99.90;;;;;;5109432;28;20019;-82
2023/09/30 00:16:30;;;;;;;11.82;2.50;;;15.40;99.90;;;;;;5109588;28;20023;-82
2023/09/30 00:18:58;;;;;;;14.25;2.15;;;15.50;99.90;;;;;;5091239;28;20306;-83
2023/09/30 00:21:24;;;;;;;13.48;2.38;;;15.50;99.90;;;;;;5109354;28;20030;-83
2023/09/30 00:23:49;;;;;;;6.72;1.95;;;15.50;99.90;;;;;;5109502;28;20055;-83
2023/09/30 00:26:15;;;;;;;13.13;3.03;;;15.50;99.90;;;;;;5109369;28;20024;-82
2023/09/30 00:28:40;;;;;;;10.90;2.45;;;15.60;99.90;;;;;;5091155;28;20114;-83
2023/09/30 00:31:10;;;;;;;7.72;2.58;;;15.70;99.90;;;;;;5109371;28;20016;-83
2023/09/30 00:33:36;;;;;;;9.93;2.30;;;15.70;99.90;;;;;;5100589;28;20055;-82
2023/09/30 00:36:08;;;;;;;12.25;2.42;;;15.70;99.90;;;;;;5091167;28;20076;-83
2023/09/30 00:38:34;;;;;;;7.03;2.15;;;15.70;99.90;;;;;;5110244;28;20032;-83
2023/09/30 00:41:00;;;;;;;11.98;1.98;;;15.70;99.90;;;;;;5109225;28;20089;-83
2023/09/30 00:43:26;;;;;;;11.05;2.45;;;15.70;99.90;;;;;;5109033;28;20028;-83
2023/09/30 00:46:23;;;;;;;6.97;2.38;;;15.60;99.90;;;;;;5109223;28;20024;-83
2023/09/30 00:48:49;;;;;;;8.15;2.00;;;15.60;99.90;;;;;;5108373;28;20032;-83
2023/09/30 00:51:15;;;;;;;7.13;1.92;;;15.60;99.90;;;;;;5108835;28;20089;-83
2023/09/30 00:53:41;;;;;;;9.75;1.95;;;15.60;99.90;;;;;;5108986;28;20379;-83
2023/09/30 00:56:07;;;;;;;12.00;2.67;;;15.60;99.90;;;;;;5110032;28;20028;-82
2023/09/30 00:58:35;;;;;;;11.48;2.40;;;15.60;99.90;;;;;;5109112;28;20042;-83
2023/09/30 01:01:01;;;;;;;7.25;1.98;;;15.60;99.90;;;;;;5109081;28;20106;-82
2023/09/30 01:03:26;;;;;;;7.03;1.85;;;15.60;99.90;;;;;;5088941;28;20157;-84
2023/09/30 01:05:53;;;;;;;11.77;2.40;;;15.60;99.90;;;;;;5089942;28;20027;-83
2023/09/30 01:08:20;;;;;;;9.38;2.20;;;15.60;99.90;;;;;;5090879;28;20027;-83
2023/09/30 01:10:45;;;;;;;7.63;2.00;;;15.60;99.90;;;;;;5109165;28;20027;-83
2023/09/30 01:13:11;;;;;;;7.88;2.10;;;15.50;99.90;;;;;;5110745;28;20107;-83
2023/09/30 01:15:37;;;;;;;9.85;2.30;;;15.40;99.90;;;;;;5111264;28;20064;-84
2023/09/30 01:18:03;;;;;;;8.65;2.38;;;15.30;99.90;;;;;;5112999;28;20034;-83
2023/09/30 01:20:29;;;;;;;8.38;2.17;;;15.20;99.90;;;;;;5094359;28;20028;-82
2023/09/30 01:22:57;;;;;;;9.48;2.20;;;15.30;99.90;;;;;;5112859;28;20016;-83
2023/09/30 01:25:22;;;;;;;12.00;2.17;;;15.40;99.90;;;;;;5094514;28;20386;-86
2023/09/30 01:27:48;;;;;;;9.88;2.63;;;15.30;99.90;;;;;;5112671;28;20485;-82
2023/09/30 01:30:14;;;;;;;14.40;2.85;;;15.20;99.90;;;;;;5093183;28;20024;-83
2023/09/30 01:32:40;;;;;;;13.00;2.33;;;15.20;99.90;;;;;;5113542;28;20032;-83
2023/09/30 01:35:06;;;;;;;6.53;2.47;;;15.30;99.90;;;;;;5113035;28;20421;-84
2023/09/30 01:37:32;;;;;;;5.57;1.90;;;15.20;99.90;;;;;;5112541;28;20505;-85
2023/09/30 01:39:57;;;;;;;7.38;2.00;;;15.20;99.90;;;;;;5112335;28;20031;-81
2023/09/30 01:42:23;;;;;;;7.50;2.20;;;15.20;99.90;;;;;;5111905;28;20106;-83
2023/09/30 01:44:49;;;;;;;9.40;1.95;;;15.20;99.90;;;;;;5111181;28;20046;-82
2023/09/30 01:47:14;;;;;;;12.48;2.70;;;15.20;99.90;;;;;;5110252;28;20079;-83
2023/09/30 01:49:40;;;;;;;12.77;2.60;;;15.30;99.90;;;;;;5094355;28;20036;-82
2023/09/30 01:52:05;;;;;;;9.13;2.20;;;15.30;99.90;;;;;;5094132;28;20424;-87
2023/09/30 01:54:31;;;;;;;10.55;2.25;;;15.30;99.90;;;;;;5093561;28;20074;-83
2023/09/30 01:56:56;;;;;;;5.47;2.13;;;15.40;99.90;;;;;;5093888;28;20020;-85
2023/09/30 01:59:22;;;;;;;10.55;2.50;;;15.40;99.90;;;;;;5112089;28;20491;-83
2023/09/30 02:01:48;;;;;;;6.95;2.35;;;15.30;99.90;;;;;;5091740;28;20031;-86
2023/09/30 02:04:17;;;;;;;10.63;2.08;;;15.20;99.90;;;;;;5092643;28;20073;-83
2023/09/30 02:06:42;;;;;;;;;;;15.20;99.90;;;;;;5112591;28;20056;-83
2023/09/30 02:09:08;;;;;;;6.43;1.80;;;15.20;99.90;;;;;;5094371;28;20282;-82
2023/09/30 02:11:35;;;;;;;8.60;2.45;;;15.10;99.90;;;;;;5111883;28;20031;-82
2023/09/30 02:14:02;;;;;;;8.73;2.25;;;15.20;99.90;;;;;;5111845;28;20064;-83
2023/09/30 02:16:28;;;;;;;8.25;2.10;;;15.30;99.90;;;;;;5110666;28;20094;-83
2023/09/30 02:18:53;;;;;;;8.20;2.15;;;15.30;99.90;;;;;;5110747;28;20059;-82
2023/09/30 02:21:21;;;;;;;6.68;2.97;;;15.30;99.90;;;;;;5110997;28;20038;-83
2023/09/30 02:23:48;;;;;;;10.93;2.42;;;15.30;99.90;;;;;;5111031;28;20016;-82
2023/09/30 02:26:17;;;;;;;7.82;2.30;;;15.30;99.90;;;;;;5111472;28;20491;-83
2023/09/30 02:28:43;;;;;;;8.48;2.00;;;15.40;99.90;;;;;;5094221;28;20031;-84
2023/09/30 02:31:09;;;;;;;12.90;2.05;;;15.40;99.90;;;;;;5111051;28;20020;-83
2023/09/30 02:33:38;;;;;;;8.45;1.92;;;15.30;99.90;;;;;;5109169;28;20084;-83
2023/09/30 02:36:07;;;;;;;5.82;1.92;;;15.30;99.90;;;;;;5093151;28;20269;-85
2023/09/30 02:38:32;;;;;;;6.75;2.13;;;15.30;99.90;;;;;;5110995;28;20019;-83
2023/09/30 02:40:58;;;;;;;10.45;2.33;;;15.30;99.90;;;;;;5092994;28;20036;-83
2023/09/30 02:43:24;;;;;;;7.20;2.00;;;15.30;99.90;;;;;;5111056;28;20072;-83
2023/09/30 02:45:50;;;;;;;8.20;2.20;;;15.30;99.90;;;;;;5111202;28;20031;-83
2023/09/30 02:48:15;;;;;;;8.20;2.00;;;15.20;99.90;;;;;;5109154;28;20487;-83
2023/09/30 02:50:44;;;;;;;7.78;2.17;;;15.20;99.90;;;;;;5111596;28;20034;-83
2023/09/30 02:53:12;;;;;;;8.18;2.53;;;15.20;99.90;;;;;;5111754;28;20379;-83
2023/09/30 02:55:37;;;;;;;7.85;2.20;;;15.20;99.90;;;;;;5110567;28;20019;-83
2023/09/30 02:58:03;;;;;;;11.60;2.35;;;15.20;99.90;;;;;;5111023;28;20027;-83
2023/09/30 03:00:32;;;;;;;9.35;2.00;;;15.30;99.90;;;;;;5092619;28;20116;-83
2023/09/30 03:03:00;;;;;;;8.57;1.85;;;15.30;99.90;;;;;;5110699;28;20022;-83
2023/09/30 03:05:27;;;;;;;10.87;2.00;;;15.30;99.90;;;;;;5109729;28;20081;-83
2023/09/30 03:07:53;;;;;;;5.85;2.08;;;15.20;99.90;;;;;;5109837;28;20028;-83
2023/09/30 03:10:23;;;;;;;5.18;1.95;;;15.10;99.90;;;;;;5110061;28;20030;-82
2023/09/30 03:12:52;;;;;;;10.90;2.40;;;15.10;99.90;;;;;;5110485;28;20395;-83
2023/09/30 03:15:18;;;;;;;7.13;2.10;;;15.20;99.90;;;;;;5110680;28;20024;-85
2023/09/30 03:17:44;;;;;;;7.10;2.17;;;15.20;99.90;;;;;;5093242;28;20027;-82
2023/09/30 03:20:14;;;;;;;5.82;1.90;;;15.30;99.90;;;;;;5108526;28;20036;-83
2023/09/30 03:22:43;;;;;;;7.45;2.15;;;15.30;99.90;;;;;;5091110;28;20035;-83
2023/09/30 03:25:12;;;;;;;12.45;2.13;;;15.30;99.90;;;;;;5110474;28;20027;-83
2023/09/30 03:27:38;;;;;;;5.30;1.90;;;15.30;99.90;;;;;;5092065;28;20414;-83
2023/09/30 03:30:08;;;;;;;7.72;2.00;;;15.30;99.90;;;;;;5092076;28;20077;-83
2023/09/30 03:32:37;;;;;;;8.63;2.72;;;15.30;99.90;;;;;;5091475;28;20126;-83
2023/09/30 03:35:11;;;;;;;13.32;2.50;;;15.20;99.90;;;;;;5083527;28;20491;-82
2023/09/30 03:37:41;;;;;;;13.82;2.22;;;15.20;99.90;;;;;;5089829;28;20016;-83
2023/09/30 03:40:40;;;;;;;8.65;2.28;;;15.10;99.90;;;;;;5091564;28;20035;-83
2023/09/30 03:42:58;;;;;;;8.05;2.20;;;15.10;99.90;;;;;;5104996;28;20432;-83
2023/09/30 03:45:24;;;;;;;7.88;2.10;;;15.00;99.90;;;;;;5109870;28;20487;-83
2023/09/30 03:47:51;;;;;;;14.10;2.85;;;14.90;99.90;;;;;;5091743;28;20031;-82
2023/09/30 03:50:17;;;;;;;10.73;1.90;;;14.90;99.90;;;;;;5090609;28;20035;-82
2023/09/30 03:52:44;;;;;;;8.10;2.22;;;14.90;99.90;;;;;;5092322;28;20042;-82
2023/09/30 03:55:17;;;;;;;7.28;2.22;;;14.80;99.90;;;;;;5091709;28;20034;-83
2023/09/30 03:57:47;;;;;;;11.10;2.25;;;14.90;99.90;;;;;;5092347;28;20547;-82
2023/09/30 04:00:18;;;;;;;11.60;2.60;;;14.80;99.90;;;;;;5110686;28;20032;-83
2023/09/30 04:02:48;;;;;;;8.27;2.13;;;14.70;99.90;;;;;;5092134;28;20407;-82
2023/09/30 04:05:14;;;;;;;9.95;2.00;;;14.60;99.90;;;;;;5091018;28;20027;-83
2023/09/30 04:07:41;;;;;;;7.65;2.20;;;14.60;99.90;;;;;;5091514;28;20042;-83
2023/09/30 04:10:08;;;;;;;10.10;1.80;;;14.60;99.90;;;;;;5109673;28;20019;-82
2023/09/30 04:12:33;;;;;;;7.70;2.25;;;14.60;99.90;;;;;;5109358;28;20051;-83
2023/09/30 04:15:00;;;;;;;7.45;2.10;;;14.60;99.90;;;;;;5090456;28;20065;-84
2023/09/30 04:17:26;;;;;;;5.82;2.30;;;14.60;99.90;;;;;;5109642;28;20168;-83
2023/09/30 04:19:53;;;;;;;6.07;2.25;;;14.50;99.90;;;;;;5090846;28;20036;-83
2023/09/30 04:22:19;;;;;;;9.80;2.25;;;14.50;99.90;;;;;;5107719;28;20022;-83
2023/09/30 04:24:45;;;;;;;7.55;2.05;;;14.60;99.90;;;;;;5109187;28;20106;-82
2023/09/30 04:27:11;;;;;;;6.53;2.20;;;14.60;99.90;;;;;;5109276;28;20047;-83
2023/09/30 04:29:37;;;;;;;8.15;1.95;;;14.60;99.90;;;;;;5108179;28;20531;-82
2023/09/30 04:32:04;;;;;;;6.07;2.08;;;14.60;99.90;;;;;;5109420;28;20035;-83
2023/09/30 04:34:30;;;;;;;9.27;2.88;;;14.50;99.90;;;;;;5100181;28;20028;-83
2023/09/30 04:36:56;;;;;;;9.55;2.15;;;14.40;99.90;;;;;;5109401;28;20024;-86
2023/09/30 04:39:22;;;;;;;6.10;2.03;;;14.40;99.90;;;;;;5090994;28;20027;-83
2023/09/30 04:41:47;;;;;;;6.68;2.05;;;14.30;99.90;;;;;;5108299;28;20106;-83
2023/09/30 04:44:13;;;;;;;9.48;2.53;;;14.40;99.90;;;;;;5096034;28;20099;-85
2023/09/30 04:46:40;;;;;;;9.88;2.53;;;14.40;99.90;;;;;;5088978;28;20053;-83
2023/09/30 04:49:07;;;;;;;10.57;3.17;;;14.40;99.90;;;;;;5073975;28;20591;-86
2023/09/30 04:51:34;;;;;;;12.93;2.72;;;14.50;99.90;;;;;;5107352;28;20028;-84
2023/09/30 04:54:00;;;;;;;11.20;3.05;;;14.50;99.90;;;;;;5113326;28;20012;-82
2023/09/30 04:56:25;;;;;;;10.98;3.10;;;14.60;99.90;;;;;;5112361;28;20034;-84
2023/09/30 04:58:52;;;;;;;8.70;2.60;;;14.70;99.90;;;;;;5113471;28;20076;-82
2023/09/30 05:01:18;;;;;;;13.40;2.95;;;14.70;99.90;;;;;;5113656;28;20099;-82
2023/09/30 05:03:48;;;;;;;9.98;2.60;;;14.70;99.90;;;;;;5095034;28;20084;-86
2023/09/30 05:06:14;;;;;;;8.57;2.53;;;14.70;99.90;;;;;;5112701;28;20031;-86
2023/09/30 05:08:39;;;;;;;9.13;2.60;;;14.80;99.90;;;;;;5108434;28;20019;-83
2023/09/30 05:11:05;;;;;;;10.85;2.88;;;14.90;99.90;;;;;;5088893;28;20035;-83
2023/09/30 05:13:30;;;;;;;9.23;2.60;;;14.80;99.90;;;;;;5102994;28;20080;-82
2023/09/30 05:15:56;;;;;;;9.88;2.67;;;14.90;99.90;;;;;;5114600;27;20069;-84
2023/09/30 05:18:21;;;;;;;10.20;2.47;;;14.80;99.90;;;;;;5112407;28;20034;-83
2023/09/30 05:20:47;;;;;;;10.40;2.67;;;14.90;99.90;;;;;;5113860;27;20495;-83
2023/09/30 05:23:14;;;;;;;9.18;2.60;;;15.00;99.90;;;;;;5100381;28;20509;-84
2023/09/30 05:25:40;;;;;;;11.65;2.78;;;14.90;99.90;;;;;;5092231;28;20027;-85
2023/09/30 05:28:06;;;;;;;10.68;2.75;;;14.90;99.90;;;;;;5089445;27;20019;-82
2023/09/30 05:30:33;;;;;;;10.45;2.53;;;14.90;99.90;;;;;;5132965;27;20031;-84
2023/09/30 05:33:00;;;;;;;11.60;2.60;;;14.90;99.90;;;;;;5133384;27;20447;-84
2023/09/30 05:35:26;;;;;;;9.77;2.78;;;14.90;99.90;;;;;;5110206;27;20491;-84
2023/09/30 05:37:54;;;;;;;10.35;2.47;;;14.90;99.90;;;;;;5079001;28;20076;-84
2023/09/30 05:40:26;;;;;;;;;;;14.90;99.90;;;;;;5106404;28;20038;-85
2023/09/30 05:43:00;;;;;;;12.20;2.70;;;14.90;99.90;;;;;;5112355;28;19907;-86
2023/09/30 05:45:27;;;;;;;8.93;3.15;;;14.90;99.90;;;;;;5111493;28;20402;-84
2023/09/30 05:47:56;;;;;;;12.35;2.95;;;14.90;99.90;;;;;;5112343;28;20024;-84
2023/09/30 05:50:26;;;;;;;7.82;2.80;;;15.00;99.90;;;;;;5112058;28;20513;-85
2023/09/30 05:52:53;;;;;;;13.80;3.15;;;15.00;99.90;;;;;;5107848;28;20115;-84
2023/09/30 05:55:20;;;;;;;9.35;2.92;;;15.00;99.90;;;;;;5102602;28;20023;-83
2023/09/30 05:57:49;;;;;;;10.10;2.95;;;15.10;99.90;;;;;;5092839;28;20126;-85
2023/09/30 06:00:30;;;;;;;10.52;3.20;;;15.10;99.90;;;;;;5111805;28;20310;-85
2023/09/30 06:02:56;;;;;;;10.57;3.00;;;15.10;99.90;;;;;;5108765;28;20016;-84
2023/09/30 06:05:29;;;;;;;7.82;2.80;;;15.10;99.90;;;;;;5101581;28;20112;-86
2023/09/30 06:07:56;;;;;;;10.70;3.08;;;15.10;99.90;;;;;;5089236;27;20019;-85
2023/09/30 06:10:22;;;;;;;11.35;2.97;;;15.10;99.90;;;;;;5120150;27;20042;-85
2023/09/30 06:12:49;;;;;;;8.63;2.72;;;15.10;99.90;;;;;;5112891;27;20383;-84
2023/09/30 06:15:15;;;;;;;10.32;3.10;;;15.10;99.90;;;;;;5111697;28;20088;-85
2023/09/30 06:17:42;;;;;;;10.60;3.15;;;15.10;99.90;;;;;;5111174;28;20081;-85
2023/09/30 06:20:09;;;;;;;9.68;2.80;;;15.00;99.90;;;;;;5109472;28;20036;-83
2023/09/30 06:22:35;;;;;;;8.50;3.00;;;14.90;99.90;;;;;;5108008;28;20072;-84
2023/09/30 06:25:04;;;;;;;12.20;2.83;;;14.90;99.90;;;;;;5110946;28;20035;-84
2023/09/30 06:27:30;;;;;;;14.23;3.20;;;14.90;99.90;;;;;;5109103;28;20019;-84
2023/09/30 06:29:56;;;;;;;12.20;2.63;;;14.80;99.90;;;;;;5112232;28;20020;-88
2023/09/30 06:32:22;;;;;;;9.07;3.08;;;14.80;99.90;;;;;;5112359;28;20027;-84
2023/09/30 06:34:47;;;;;;;8.07;3.20;;;14.80;99.90;;;;;;5111221;28;20027;-85
2023/09/30 06:37:13;;;;;;;11.48;3.00;;;14.70;99.90;;;;;;5110053;28;20391;-85
2023/09/30 06:39:39;;;;;;;10.23;2.90;;;14.70;99.90;;;;;;5110894;28;20042;-86
2023/09/30 06:42:05;;;;;;;11.15;3.15;;;14.70;99.90;;;;;;5092597;28;20118;-85
2023/09/30 06:44:31;;;;;;;7.35;2.70;;;14.70;99.90;;;;;;5111375;28;20053;-85
2023/09/30 06:46:58;;;;;;;10.85;3.03;;;14.70;99.90;;;;;;5093822;28;20024;-84
2023/09/30 06:49:24;;;;;;;10.65;2.80;;;14.60;99.90;;;;;;5111908;28;20406;-87
2023/09/30 06:51:49;;;;;;;11.27;3.20;;;14.60;99.90;;;;;;5109860;28;20028;-86
2023/09/30 06:54:15;;;;;;;6.22;3.00;;;14.70;99.90;;;;;;5111151;28;20024;-85
2023/09/30 06:56:41;;;;;;;8.07;2.80;;;14.70;99.90;;;;;;5111203;28;20376;-85
2023/09/30 06:59:06;;;;;;;9.68;2.97;;;14.70;99.90;;;;;;5111314;28;20066;-93
2023/09/30 07:01:32;;;;;;;8.70;2.95;;;14.70;99.90;;;;;;5093231;28;20028;-86
2023/09/30 07:03:58;;;;;;;7.82;2.80;;;14.80;99.90;;;;;;5111989;28;20023;-91
2023/09/30 07:06:24;;;;;;;9.00;2.95;;;14.80;99.90;;;;;;5112320;28;20467;-91
2023/09/30 07:08:50;;;;;;;13.32;3.13;;;14.90;99.90;;;;;;5109983;28;20062;-87
2023/09/30 07:11:16;;;;;;;8.88;3.35;;;14.90;99.90;;;;;;5093017;28;20201;-91
2023/09/30 07:13:42;;;;;;;9.55;2.92;;;15.00;99.90;;;;;;5111209;28;20563;-88
2023/09/30 07:16:07;;;;;;;10.50;3.00;;;15.00;99.90;;;;;;5092657;28;20502;-89
2023/09/30 07:18:33;;;;;;;10.27;2.80;;;15.10;99.90;;;;;;5110910;28;20076;-87
2023/09/30 07:20:59;;;;;;;7.07;2.50;;;15.10;99.90;;;;;;5111542;28;20035;-87
2023/09/30 07:23:24;;;;;;;9.15;2.90;;;15.20;99.90;;;;;;5103419;28;20020;-88
2023/09/30 07:25:50;;;;;;;10.30;3.25;;;15.20;99.90;;;;;;5091535;28;20062;-86
2023/09/30 07:28:16;;;;;;;15.82;3.13;;;15.30;99.90;;;;;;5107558;28;20471;-87
2023/09/30 07:30:42;;;;;;;8.63;3.22;;;15.40;99.90;;;;;;5090145;28;20039;-86
2023/09/30 07:33:08;;;;;;;11.10;3.88;;;15.40;99.90;;;;;;5089552;28;20037;-87
2023/09/30 07:35:34;;;;;;;11.55;3.22;;;15.50;99.90;;;;;;5077959;28;20032;-87
2023/09/30 07:38:00;;;;;;;10.90;3.40;;;15.60;99.90;;;;;;5106119;28;20077;-88
2023/09/30 07:40:27;;;;;;;9.88;3.08;;;15.70;99.90;;;;;;5092780;27;20061;-85
2023/09/30 07:42:53;;;;;;;10.60;3.20;;;15.80;99.90;;;;;;5102944;28;20020;-86
2023/09/30 07:45:20;;;;;;;7.03;2.50;;;15.80;99.90;;;;;;5089023;28;20027;-89
2023/09/30 07:47:46;;;;;;;11.82;3.13;;;15.90;99.90;;;;;;5091208;28;20027;-86
2023/09/30 07:50:12;;;;;;;9.85;3.15;;;16.00;99.90;;;;;;5102782;28;20042;-86
2023/09/30 07:52:42;;;;;;;10.35;3.35;;;16.10;99.90;;;;;;5091232;28;20019;-85
2023/09/30 07:55:09;;;;;;;11.13;3.42;;;16.10;99.90;;;;;;5109494;28;20031;-86
2023/09/30 07:57:35;;;;;;;12.73;3.40;;;16.20;99.90;;;;;;5109561;28;20459;-87
2023/09/30 08:00:02;;;;;;;14.52;3.53;;;16.20;99.90;;;;;;5113667;27;20059;-92
2023/09/30 08:02:33;;;;;;;10.73;3.10;;;16.20;99.90;;;;;;5109780;27;20540;-85
2023/09/30 08:04:59;;;;;;;14.55;3.50;;;16.20;99.90;;;;;;5126128;27;20031;-84
2023/09/30 08:07:25;;;;;;;9.52;3.75;;;16.30;99.90;;;;;;5091518;28;20023;-84
2023/09/30 08:09:51;;;;;;;18.02;3.40;;;16.30;99.90;;;;;;5109716;28;20246;-86
2023/09/30 08:12:17;;;;;;;14.80;3.60;;;16.40;99.90;;;;;;5109840;28;20028;-86
2023/09/30 08:14:44;;;;;;;10.30;3.47;;;16.50;99.90;;;;;;5109746;28;20031;-88
2023/09/30 08:17:10;;;;;;;10.93;3.20;;;16.60;99.90;;;;;;5091685;28;20478;-85
2023/09/30 08:19:36;;;;;;;13.57;3.55;;;16.60;99.90;;;;;;5087478;28;20517;-87
2023/09/30 08:22:03;;;;;;;11.48;3.53;;;16.70;99.90;;;;;;5090832;28;20035;-87
2023/09/30 08:24:29;;;;;;;16.92;4.00;;;16.70;99.90;;;;;;5110692;28;20020;-87
2023/09/30 08:26:56;;;;;;;11.77;3.85;;;16.80;99.90;;;;;;5108737;28;20023;-87
2023/09/30 08:29:22;;;;;;;11.85;4.30;;;16.90;99.90;;;;;;5093754;28;20315;-85
2023/09/30 08:31:50;;;;;;;8.07;3.42;;;16.90;99.90;;;;;;5108972;28;20040;-84
2023/09/30 08:34:16;;;;;;;10.23;3.80;;;17.00;99.90;;;;;;5109444;28;20020;-84
2023/09/30 08:36:42;;;;;;;11.13;3.55;;;17.10;99.90;;;;;;5091208;28;20104;-85
2023/09/30 08:39:10;;;;;;;15.25;3.55;;;17.10;99.90;;;;;;5109146;28;20425;-85
2023/09/30 08:41:35;;;;;;;14.52;4.32;;;17.20;99.90;;;;;;5108371;28;20032;-85
2023/09/30 08:44:03;;;;;;;11.85;3.47;;;17.20;99.90;;;;;;5109995;28;20065;-87
2023/09/30 08:46:33;;;;;;;15.02;3.67;;;17.30;99.90;;;;;;5091953;28;20032;-85
2023/09/30 08:49:03;;;;;;;10.73;3.45;;;17.30;99.90;;;;;;5091456;28;20035;-86
2023/09/30 08:51:30;;;;;;;12.95;3.88;;;17.40;99.90;;;;;;5110454;28;20532;-89
2023/09/30 08:53:56;;;;;;;13.68;3.67;;;17.50;99.90;;;;;;5109886;28;20047;-88
2023/09/30 08:56:28;;;;;;;17.20;4.00;;;17.60;99.90;;;;;;5089419;28;20016;-87
2023/09/30 08:58:58;;;;;;;8.98;3.70;;;17.60;99.90;;;;;;5089930;28;20031;-87
2023/09/30 09:01:34;;;;;;;7.28;3.40;;;17.70;99.90;;;;;;5109866;28;20067;-88
2023/09/30 09:04:00;;;;;;;10.00;3.72;;;17.80;99.90;;;;;;5092351;28;20048;-89
2023/09/30 09:06:27;;;;;;;12.93;4.45;;;17.90;99.90;;;;;;5091677;28;20034;-90
2023/09/30 09:08:52;;;;;;;16.55;4.15;;;17.90;99.90;;;;;;5091699;28;20023;-87
2023/09/30 09:11:18;;;;;;;9.55;3.63;;;18.00;99.90;;;;;;5090812;28;20050;-87
2023/09/30 09:13:56;;;;;;;13.60;3.78;;;17.90;99.90;;;;;;5091099;28;20028;-87
2023/09/30 09:16:23;;;;;;;;;;;17.90;99.90;;;;;;5109656;28;20088;-86
2023/09/30 09:18:49;;;;;;;11.75;4.25;;;18.10;99.90;;;;;;5108384;28;19908;-90
2023/09/30 09:21:18;;;;;;;10.07;3.92;;;18.10;99.90;;;;;;5090892;28;20035;-87
2023/09/30 09:23:47;;;;;;;9.88;3.78;;;18.10;99.90;;;;;;5091937;28;20097;-89
2023/09/30 09:26:35;;;;;;;10.55;3.97;;;18.10;99.90;;;;;;5109515;28;20383;-87
2023/09/30 09:29:03;;;;;;;14.52;4.93;;;18.20;99.90;;;;;;5090328;28;20030;-89
2023/09/30 09:31:34;;;;;;;15.15;4.55;;;18.40;99.90;;;;;;5091334;28;20027;-86
2023/09/30 09:34:00;;;;;;;15.15;4.28;;;18.40;99.90;;;;;;5089766;28;20027;-88
2023/09/30 09:36:40;;;;;;;12.85;4.32;;;18.50;99.90;;;;;;5095189;28;20547;-89
2023/09/30 09:39:06;;;;;;;9.88;4.20;;;18.50;99.90;;;;;;5113789;28;20103;-86
2023/09/30 09:41:32;;;;;;;15.50;4.22;;;18.60;99.90;;;;;;5112991;28;20114;-86
2023/09/30 09:43:59;;;;;;;14.50;4.55;;;18.70;99.90;;;;;;5112487;28;20099;-87
2023/09/30 09:46:27;;;;;;;9.85;4.22;;;18.70;99.90;;;;;;5112536;28;20028;-86
2023/09/30 09:48:54;;;;;;;9.95;4.43;;;18.80;99.90;;;;;;5112113;28;20031;-85
2023/09/30 09:51:21;;;;;;;12.30;4.47;;;18.80;99.90;;;;;;5095208;28;20029;-87
2023/09/30 09:53:50;;;;;;;11.00;3.95;;;18.80;99.90;;;;;;5081814;28;20031;-88
2023/09/30 09:56:16;;;;;;;14.35;4.05;;;18.90;99.90;;;;;;5111949;28;20020;-87
2023/09/30 09:58:43;;;;;;;13.98;4.28;;;19.00;99.90;;;;;;5111300;28;20039;-89
2023/09/30 10:01:10;;;;;;;15.60;4.20;;;19.00;99.90;;;;;;5093959;28;20138;-87
2023/09/30 10:03:37;;;;;;;12.68;4.05;;;19.10;99.90;;;;;;5112143;28;20095;-89
2023/09/30 10:06:04;;;;;;;14.07;4.47;;;19.20;99.90;;;;;;5113175;28;20023;-88
2023/09/30 10:08:41;;;;;;;17.77;5.22;;;19.20;99.90;;;;;;5102286;28;20112;-86
2023/09/30 10:11:08;;;;;;;13.85;4.72;;;19.20;99.90;;;;;;5086871;28;20024;-86
2023/09/30 10:13:53;;;;;;;11.18;4.75;;;19.30;99.90;;;;;;5104680;28;20039;-86
2023/09/30 10:16:37;;;;;;;13.13;4.20;;;19.30;99.90;;;;;;5112141;28;20128;-86
2023/09/30 10:19:22;;;;;;;15.32;4.32;;;19.40;99.90;;;;;;5112434;28;20498;-86
2023/09/30 10:22:16;;;;;;;11.57;4.38;;;19.40;99.90;;;;;;5073803;28;20553;-85
2023/09/30 10:24:41;;;;;;;13.23;4.57;;;19.50;99.90;;;;;;5092481;28;20034;-87
2023/09/30 10:27:28;;;;;;;15.85;5.22;;;19.50;99.90;;;;;;5074366;28;20016;-87
2023/09/30 10:30:10;;;;;;;15.57;5.20;;;19.60;99.90;;;;;;5083976;28;20059;-87
2023/09/30 10:32:51;;;;;;;11.15;4.40;;;19.60;99.90;;;;;;5112401;28;20017;-86
2023/09/30 10:35:16;;;;;;;23.65;5.40;;;19.60;99.90;;;;;;5093503;28;20020;-87
2023/09/30 10:37:44;;;;;;;11.90;4.78;;;19.60;99.90;;;;;;5111002;28;20027;-88
2023/09/30 10:40:26;;;;;;;13.98;4.20;;;19.60;99.90;;;;;;5093926;28;20051;-86
2023/09/30 10:42:54;;;;;;;15.77;4.85;;;19.60;99.90;;;;;;5091387;28;20032;-89
2023/09/30 10:45:52;;;;;;;;;;;19.70;99.90;;;;;;5072620;28;20640;-87
2023/09/30 10:48:34;;;;;;;12.73;4.50;;;19.80;99.90;;;;;;5031490;28;19911;-88
2023/09/30 10:51:21;;;;;;;12.95;4.15;;;19.70;99.90;;;;;;5111623;28;20306;-88
2023/09/30 10:53:47;;;;;;;14.02;4.68;;;19.90;99.90;;;;;;5093599;28;20065;-88
2023/09/30 10:56:14;;;;;;;16.20;4.72;;;19.80;99.90;;;;;;5093151;28;20502;-87
2023/09/30 10:58:39;;;;;;;14.07;4.82;;;19.90;99.90;;;;;;5081543;28;20020;-87
2023/09/30 11:01:05;;;;;;;13.25;4.78;;;19.90;99.90;;;;;;5090604;28;20059;-87
2023/09/30 11:03:30;;;;;;;19.80;5.53;;;19.90;99.90;;;;;;5103733;28;20213;-87
2023/09/30 11:05:56;;;;;;;13.70;5.13;;;20.00;99.90;;;;;;5110886;28;20039;-86
2023/09/30 11:08:23;;;;;;;13.80;4.60;;;20.00;99.90;;;;;;5092633;28;20026;-86
2023/09/30 11:10:50;;;;;;;12.27;4.38;;;20.00;99.90;;;;;;5092965;28;20072;-88
2023/09/30 11:13:16;;;;;;;14.65;4.70;;;20.00;99.90;;;;;;5092991;28;20020;-86
2023/09/30 11:15:43;;;;;;;10.05;4.15;;;20.00;99.90;;;;;;5109559;28;20076;-87
2023/09/30 11:18:16;;;;;;;12.30;4.78;;;20.10;99.90;;;;;;5111521;28;20019;-86
2023/09/30 11:20:44;;;;;;;12.32;4.30;;;20.10;99.90;;;;;;5111159;28;20543;-87
2023/09/30 11:23:11;;;;;;;12.45;4.70;;;20.20;99.90;;;;;;5093152;28;20488;-87
2023/09/30 11:25:39;;;;;;;18.30;4.88;;;20.20;99.90;;;;;;5092594;28;20031;-87
2023/09/30 11:28:15;;;;;;;11.38;4.60;;;20.10;99.90;;;;;;5093012;28;20107;-87
2023/09/30 11:31:02;;;;;;;11.02;4.40;;;20.20;99.90;;;;;;5092919;28;20073;-87
2023/09/30 11:33:28;;;;;;;14.40;5.25;;;20.20;99.90;;;;;;5090007;28;20032;-86
2023/09/30 11:36:02;;;;;;;14.13;4.95;;;20.20;99.90;;;;;;5091347;28;20051;-87
2023/09/30 11:38:28;;;;;;;13.20;4.90;;;20.10;99.90;;;;;;5110876;28;20055;-86
2023/09/30 11:41:02;;;;;;;12.38;4.90;;;20.10;99.90;;;;;;5097530;28;20043;-86
2023/09/30 11:43:29;;;;;;;13.77;4.90;;;20.20;99.90;;;;;;5093745;28;20560;-89
2023/09/30 11:46:08;;;;;;;13.60;5.00;;;20.30;99.90;;;;;;5087361;28;20039;-91
2023/09/30 11:48:35;;;;;;;15.77;5.03;;;20.30;99.90;;;;;;5075432;28;20491;-89
2023/09/30 11:51:02;;;;;;;14.02;4.72;;;20.30;99.90;;;;;;5089770;28;20024;-86
2023/09/30 11:53:32;;;;;;;13.18;5.05;;;20.30;99.90;;;;;;5097311;28;20031;-88
2023/09/30 11:55:59;;;;;;;13.10;5.15;;;20.30;99.90;;;;;;5111014;28;20032;-89
2023/09/30 11:58:28;;;;;;;13.07;4.75;;;20.30;99.90;;;;;;5091300;28;20027;-86
2023/09/30 12:00:59;;;;;;;17.80;5.18;;;20.30;99.90;;;;;;5108938;28;20031;-87
2023/09/30 12:03:27;;;;;;;13.30;4.68;;;20.30;99.90;;;;;;5108762;28;20020;-86
2023/09/30 12:05:55;;;;;;;14.95;5.07;;;20.40;99.90;;;;;;5109591;28;20372;-86
2023/09/30 12:08:23;;;;;;;;;;;20.40;99.90;;;;;;5091492;28;20161;-85
2023/09/30 12:10:49;;;;;;;14.90;4.85;;;20.30;99.90;;;;;;5109204;28;19914;-88
2023/09/30 12:13:15;;;;;;;12.15;4.85;;;20.20;99.90;;;;;;5108552;28;20098;-87
2023/09/30 12:15:42;;;;;;;17.13;5.32;;;20.20;99.90;;;;;;5092522;28;20077;-88
2023/09/30 12:18:07;;;;;;;14.10;4.95;;;20.20;99.90;;;;;;5109254;28;20077;-87
2023/09/30 12:20:33;;;;;;;16.92;5.10;;;20.20;99.90;;;;;;5109813;28;20428;-87
2023/09/30 12:22:59;;;;;;;13.13;5.50;;;20.20;99.90;;;;;;5109659;28;20051;-86
2023/09/30 12:25:25;;;;;;;14.32;5.68;;;20.30;99.90;;;;;;5110245;28;20032;-86
2023/09/30 12:27:51;;;;;;;17.27;4.90;;;20.30;99.90;;;;;;5109164;28;20024;-85
2023/09/30 12:30:19;;;;;;;17.15;5.38;;;20.40;99.90;;;;;;5088639;28;20035;-88
2023/09/30 12:32:46;;;;;;;15.55;5.18;;;20.50;99.90;;;;;;5096794;28;20016;-87
2023/09/30 12:35:11;;;;;;;16.65;5.47;;;20.60;99.90;;;;;;5090426;28;20039;-87
2023/09/30 12:37:38;;;;;;;13.32;5.10;;;20.60;99.90;;;;;;5101132;28;20118;-86
2023/09/30 12:40:06;;;;;;;13.35;5.00;;;20.60;99.90;;;;;;5088244;28;20056;-87
2023/09/30 12:42:34;;;;;;;12.95;4.93;;;20.60;99.90;;;;;;5096433;28;20028;-86
2023/09/30 12:45:00;;;;;;;;;;;20.60;99.90;;;;;;5088679;28;20028;-88
2023/09/30 12:47:26;;;;;;;10.68;4.85;;;20.60;99.90;;;;;;5088318;28;19994;-85